Time;durP1;ratioP1;P1;durP2;ratioP2;P2;SDS_P1;SDS_P2;PMS_P1;PMS_P2;Temp;Humidity;BMP_temperature;BMP_pressure;BME280_temperature;BME280_humidity;BME280_pressure;Samples;Min_cycle;Max_cycle;Signal;HPM_P1;HPM_P2
2020/12/07 00:02:21;;;;;;;54.95;33.13;;;4.20;99.90;;;;;;5054169;28;20031;-89
2020/12/07 00:04:47;;;;;;;56.30;33.65;;;4.30;99.90;;;;;;5066984;28;20162;-90
2020/12/07 00:07:13;;;;;;;63.63;35.88;;;4.20;99.90;;;;;;5045547;28;20552;-89
2020/12/07 00:09:38;;;;;;;55.63;33.33;;;4.20;99.90;;;;;;5048410;28;20021;-89
2020/12/07 00:12:04;;;;;;;58.00;34.42;;;4.20;99.90;;;;;;5046052;28;20029;-89
2020/12/07 00:14:29;;;;;;;59.45;34.38;;;4.20;99.90;;;;;;5066026;28;20095;-89
2020/12/07 00:16:55;;;;;;;64.82;36.65;;;4.30;99.90;;;;;;5053889;28;20082;-90
2020/12/07 00:19:20;;;;;;;64.32;37.45;;;4.30;99.90;;;;;;5052414;28;20016;-89
2020/12/07 00:21:46;;;;;;;57.83;33.88;;;4.30;99.90;;;;;;5056064;28;20028;-89
2020/12/07 00:24:12;;;;;;;54.80;33.00;;;4.20;99.90;;;;;;5051080;28;20023;-89
2020/12/07 00:26:38;;;;;;;51.63;32.30;;;4.20;99.90;;;;;;5048376;28;20020;-89
2020/12/07 00:29:04;;;;;;;55.97;34.72;;;4.20;99.90;;;;;;5053780;28;20047;-90
2020/12/07 00:31:29;;;;;;;56.28;33.83;;;4.20;99.90;;;;;;5044469;28;20048;-89
2020/12/07 00:33:58;;;;;;;56.83;34.00;;;4.20;99.90;;;;;;5046926;28;20024;-89
2020/12/07 00:36:26;;;;;;;57.22;34.20;;;4.30;99.90;;;;;;5069046;28;20030;-90
2020/12/07 00:38:53;;;;;;;56.13;33.40;;;4.30;99.90;;;;;;5068649;28;20047;-89
2020/12/07 00:41:23;;;;;;;56.53;33.97;;;4.30;99.90;;;;;;5049098;28;20027;-89
2020/12/07 00:43:49;;;;;;;57.25;32.47;;;4.30;99.90;;;;;;5050154;28;20024;-89
2020/12/07 00:46:15;;;;;;;57.38;32.40;;;4.30;99.90;;;;;;5048671;28;20392;-89
2020/12/07 00:48:40;;;;;;;62.50;34.17;;;4.30;99.90;;;;;;5047621;28;20074;-89
2020/12/07 00:51:06;;;;;;;61.42;33.30;;;4.30;99.90;;;;;;5047579;28;20474;-90
2020/12/07 00:53:32;;;;;;;59.70;34.83;;;4.30;99.90;;;;;;5067748;28;20050;-89
2020/12/07 00:55:57;;;;;;;52.78;30.73;;;4.30;99.90;;;;;;5050397;28;20108;-89
2020/12/07 00:58:23;;;;;;;56.15;32.63;;;4.40;99.90;;;;;;5044443;28;20539;-89
2020/12/07 01:00:48;;;;;;;60.00;33.67;;;4.40;99.90;;;;;;5042605;28;20043;-89
2020/12/07 01:03:14;;;;;;;61.33;33.67;;;4.40;99.90;;;;;;5050175;28;20028;-89
2020/12/07 01:05:39;;;;;;;58.70;33.45;;;4.40;99.90;;;;;;5051413;28;20020;-89
2020/12/07 01:08:05;;;;;;;63.15;34.40;;;4.40;99.90;;;;;;5047300;28;20074;-89
2020/12/07 01:10:31;;;;;;;59.22;33.95;;;4.40;99.90;;;;;;5061774;28;20100;-89
2020/12/07 01:12:56;;;;;;;62.70;35.38;;;4.40;99.90;;;;;;5067442;28;20023;-90
2020/12/07 01:15:22;;;;;;;54.80;31.17;;;4.40;99.90;;;;;;5048070;28;20464;-89
2020/12/07 01:17:47;;;;;;;57.67;30.73;;;4.40;99.90;;;;;;5065667;28;20384;-89
2020/12/07 01:20:13;;;;;;;60.17;31.48;;;4.40;99.90;;;;;;5049292;28;20468;-90
2020/12/07 01:22:38;;;;;;;54.45;30.20;;;4.50;99.90;;;;;;5043026;28;20055;-89
2020/12/07 01:25:04;;;;;;;59.42;30.38;;;4.40;99.90;;;;;;5067441;28;20068;-89
2020/12/07 01:27:29;;;;;;;62.90;34.15;;;4.50;99.90;;;;;;5064984;28;20107;-90
2020/12/07 01:29:55;;;;;;;76.88;39.30;;;4.50;99.90;;;;;;5046030;28;20062;-90
2020/12/07 01:32:20;;;;;;;80.68;38.72;;;4.50;99.90;;;;;;5051867;28;20028;-89
2020/12/07 01:34:46;;;;;;;72.25;38.20;;;4.40;99.90;;;;;;5061468;28;20111;-89
2020/12/07 01:37:11;;;;;;;70.60;37.92;;;4.40;99.90;;;;;;5052528;28;20075;-89
2020/12/07 01:39:37;;;;;;;65.85;36.63;;;4.40;99.90;;;;;;5054207;28;20032;-90
2020/12/07 01:42:02;;;;;;;74.32;38.75;;;4.40;99.90;;;;;;5044514;28;20045;-90
2020/12/07 01:44:28;;;;;;;72.30;38.60;;;4.40;99.90;;;;;;5054763;28;20032;-90
2020/12/07 01:46:53;;;;;;;67.53;36.83;;;4.40;99.90;;;;;;5049749;28;20071;-89
2020/12/07 01:49:19;;;;;;;69.72;37.00;;;4.40;99.90;;;;;;5042661;28;20045;-90
2020/12/07 01:51:45;;;;;;;73.30;37.50;;;4.40;99.90;;;;;;5060111;28;20020;-90
2020/12/07 01:54:12;;;;;;;76.88;38.72;;;4.40;99.90;;;;;;5055234;28;20025;-90
2020/12/07 01:56:38;;;;;;;76.95;38.90;;;4.40;99.90;;;;;;5044304;28;20017;-90
2020/12/07 01:59:04;;;;;;;71.00;37.97;;;4.40;99.90;;;;;;5054797;28;20028;-90
2020/12/07 02:01:30;;;;;;;78.57;37.50;;;4.40;99.90;;;;;;5054930;28;20021;-89
2020/12/07 02:03:56;;;;;;;72.70;36.78;;;4.40;99.90;;;;;;5051987;28;20021;-91
2020/12/07 02:06:22;;;;;;;73.40;38.25;;;4.40;99.90;;;;;;5069230;28;20070;-90
2020/12/07 02:08:49;;;;;;;74.75;37.55;;;4.40;99.90;;;;;;5052572;28;20059;-90
2020/12/07 02:11:16;;;;;;;72.32;35.63;;;4.40;99.90;;;;;;5055489;28;20024;-90
2020/12/07 02:13:41;;;;;;;67.55;37.45;;;4.50;99.90;;;;;;5070706;28;20036;-90
2020/12/07 02:16:07;;;;;;;70.55;38.00;;;4.50;99.90;;;;;;5056021;28;20487;-91
2020/12/07 02:18:32;;;;;;;70.47;37.08;;;4.40;99.90;;;;;;5053031;28;20032;-89
2020/12/07 02:20:58;;;;;;;77.28;38.75;;;4.40;99.90;;;;;;5068934;28;20028;-90
2020/12/07 02:23:24;;;;;;;71.88;39.65;;;4.40;99.90;;;;;;5057232;28;20025;-89
2020/12/07 02:25:49;;;;;;;64.50;34.50;;;4.40;99.90;;;;;;5058065;28;20029;-89
2020/12/07 02:28:15;;;;;;;72.18;39.13;;;4.40;99.90;;;;;;5052602;28;20021;-90
2020/12/07 02:30:40;;;;;;;70.13;36.20;;;4.40;99.90;;;;;;5070666;28;20045;-90
2020/12/07 02:33:06;;;;;;;69.07;36.22;;;4.40;99.90;;;;;;5068824;28;20017;-90
2020/12/07 02:35:31;;;;;;;67.25;35.22;;;4.40;99.90;;;;;;5056320;28;20016;-91
2020/12/07 02:37:57;;;;;;;70.43;37.35;;;4.40;99.90;;;;;;5047849;28;20029;-90
2020/12/07 02:40:22;;;;;;;64.65;35.38;;;4.40;99.90;;;;;;5049958;28;20017;-90
2020/12/07 02:42:48;;;;;;;65.35;36.22;;;4.40;99.90;;;;;;5052762;28;20024;-90
2020/12/07 02:45:15;;;;;;;61.83;35.83;;;4.40;99.90;;;;;;5052701;28;20064;-90
2020/12/07 02:47:42;;;;;;;58.45;34.10;;;4.40;99.90;;;;;;5052566;28;20074;-90
2020/12/07 02:50:09;;;;;;;68.82;35.63;;;4.40;99.90;;;;;;5047544;28;20021;-90
2020/12/07 02:52:35;;;;;;;58.45;33.05;;;4.40;99.90;;;;;;5051986;28;21250;-90
2020/12/07 02:55:02;;;;;;;61.40;32.72;;;4.40;99.90;;;;;;5046734;28;20017;-90
2020/12/07 02:57:28;;;;;;;61.63;33.80;;;4.40;99.90;;;;;;5047695;28;20032;-90
2020/12/07 02:59:54;;;;;;;53.63;30.52;;;4.40;99.90;;;;;;5050537;28;20039;-90
2020/12/07 03:02:20;;;;;;;53.55;29.92;;;4.40;99.90;;;;;;5058770;28;20021;-90
2020/12/07 03:04:46;;;;;;;59.53;31.35;;;4.40;99.90;;;;;;5058775;28;20047;-90
2020/12/07 03:07:12;;;;;;;59.88;31.73;;;4.40;99.90;;;;;;5047415;28;20052;-90
2020/12/07 03:09:38;;;;;;;56.28;31.17;;;4.40;99.90;;;;;;5044801;28;20013;-90
2020/12/07 03:12:04;;;;;;;52.72;29.92;;;4.40;99.90;;;;;;5047198;28;20023;-90
2020/12/07 03:14:29;;;;;;;49.92;28.20;;;4.40;99.90;;;;;;5046225;28;20107;-90
2020/12/07 03:16:55;;;;;;;53.80;28.08;;;4.40;99.90;;;;;;5052177;28;20412;-90
2020/12/07 03:19:21;;;;;;;51.80;29.35;;;4.40;99.90;;;;;;5052432;28;20122;-89
2020/12/07 03:21:46;;;;;;;54.22;29.42;;;4.40;99.90;;;;;;5051550;28;20024;-90
2020/12/07 03:24:12;;;;;;;54.53;30.30;;;4.40;99.90;;;;;;5051270;28;20047;-92
2020/12/07 03:26:38;;;;;;;53.20;28.45;;;4.40;99.90;;;;;;5051337;28;20460;-90
2020/12/07 03:29:04;;;;;;;55.85;30.70;;;4.40;99.90;;;;;;5052333;28;20024;-91
2020/12/07 03:31:31;;;;;;;64.10;32.28;;;4.40;99.90;;;;;;5050359;28;20052;-90
2020/12/07 03:33:58;;;;;;;56.42;29.25;;;4.40;99.90;;;;;;5051795;28;20110;-89
2020/12/07 03:36:24;;;;;;;54.83;29.63;;;4.40;99.90;;;;;;5063733;28;20020;-90
2020/12/07 03:38:50;;;;;;;55.15;30.80;;;4.40;99.90;;;;;;5054514;28;20276;-90
2020/12/07 03:41:15;;;;;;;57.75;32.05;;;4.40;99.90;;;;;;5053892;28;20063;-90
2020/12/07 03:43:41;;;;;;;56.85;30.17;;;4.40;99.90;;;;;;5054717;28;20024;-90
2020/12/07 03:46:06;;;;;;;57.80;32.28;;;4.40;99.90;;;;;;5054334;28;20044;-90
2020/12/07 03:48:32;;;;;;;65.03;34.08;;;4.40;99.90;;;;;;5049244;28;20531;-89
2020/12/07 03:50:57;;;;;;;67.93;34.20;;;4.40;99.90;;;;;;5064035;28;20021;-90
2020/12/07 03:53:23;;;;;;;67.05;35.22;;;4.40;99.90;;;;;;5047749;28;20017;-90
2020/12/07 03:55:49;;;;;;;66.50;33.55;;;4.40;99.90;;;;;;5070805;28;20013;-90
2020/12/07 03:58:14;;;;;;;58.25;31.40;;;4.40;99.90;;;;;;5074961;28;20048;-90
2020/12/07 04:00:40;;;;;;;69.40;33.08;;;4.40;99.90;;;;;;5051624;28;20361;-91
2020/12/07 04:03:08;;;;;;;61.95;32.90;;;4.40;99.90;;;;;;5057322;28;20074;-91
2020/12/07 04:05:39;;;;;;;59.55;33.42;;;4.40;99.90;;;;;;5063717;28;20104;-91
2020/12/07 04:08:05;;;;;;;69.70;36.15;;;4.40;99.90;;;;;;5049294;28;20020;-90
2020/12/07 04:10:30;;;;;;;62.15;33.58;;;4.40;99.90;;;;;;5046047;28;20021;-89
2020/12/07 04:12:56;;;;;;;72.65;37.25;;;4.40;99.90;;;;;;5052562;28;20031;-90
2020/12/07 04:15:22;;;;;;;59.22;31.48;;;4.40;99.90;;;;;;5063264;28;20108;-90
2020/12/07 04:17:47;;;;;;;69.15;35.22;;;4.40;99.90;;;;;;5051616;28;20020;-90
2020/12/07 04:20:13;;;;;;;62.78;33.22;;;4.30;99.90;;;;;;5056977;28;20023;-90
2020/12/07 04:22:39;;;;;;;62.72;34.45;;;4.40;99.90;;;;;;5050998;28;20017;-90
2020/12/07 04:25:04;;;;;;;61.88;34.00;;;4.40;99.90;;;;;;5045594;28;20031;-90
2020/12/07 04:27:30;;;;;;;64.20;34.88;;;4.40;99.90;;;;;;5045364;28;20056;-90
2020/12/07 04:29:55;;;;;;;64.13;35.25;;;4.40;99.90;;;;;;5068027;28;20056;-90
2020/12/07 04:32:21;;;;;;;68.38;36.25;;;4.40;99.90;;;;;;5051640;28;20039;-90
2020/12/07 04:34:46;;;;;;;64.32;35.85;;;4.40;99.90;;;;;;5051037;28;20040;-90
2020/12/07 04:37:12;;;;;;;67.55;36.70;;;4.40;99.90;;;;;;5058183;28;20024;-88
2020/12/07 04:39:37;;;;;;;62.13;34.50;;;4.40;99.90;;;;;;5092730;28;20009;-89
2020/12/07 04:42:03;;;;;;;62.05;35.85;;;4.40;99.90;;;;;;5066042;28;20032;-88
2020/12/07 04:44:29;;;;;;;72.60;40.35;;;4.40;99.90;;;;;;5061872;28;20029;-89
2020/12/07 04:46:55;;;;;;;73.97;39.38;;;4.40;99.90;;;;;;5066873;28;20372;-90
2020/12/07 04:49:21;;;;;;;75.28;38.88;;;4.40;99.90;;;;;;5048030;28;20017;-90
2020/12/07 04:51:50;;;;;;;78.13;41.17;;;4.40;99.90;;;;;;5047978;28;20051;-90
2020/12/07 04:54:18;;;;;;;76.15;41.45;;;4.40;99.90;;;;;;5055984;28;20056;-90
2020/12/07 04:56:44;;;;;;;74.07;41.17;;;4.40;99.90;;;;;;5047548;28;20044;-89
2020/12/07 04:59:09;;;;;;;68.78;39.35;;;4.40;99.90;;;;;;5062478;28;20064;-90
2020/12/07 05:01:36;;;;;;;74.47;38.88;;;4.50;99.90;;;;;;5056437;28;20112;-90
2020/12/07 05:04:02;;;;;;;75.53;40.17;;;4.40;99.90;;;;;;5049802;28;20075;-90
2020/12/07 05:06:29;;;;;;;81.07;43.67;;;4.40;99.90;;;;;;5066586;28;20025;-89
2020/12/07 05:08:57;;;;;;;78.50;41.75;;;4.40;99.90;;;;;;5054155;28;20032;-89
2020/12/07 05:11:22;;;;;;;86.25;46.25;;;4.40;99.90;;;;;;5050478;28;20024;-90
2020/12/07 05:13:53;;;;;;;76.32;40.97;;;4.40;99.90;;;;;;5049584;28;20027;-91
2020/12/07 05:16:18;;;;;;;77.45;41.83;;;4.40;99.90;;;;;;5066654;28;20017;-91
2020/12/07 05:18:44;;;;;;;71.82;38.97;;;4.40;99.90;;;;;;5056306;28;20510;-90
2020/12/07 05:21:10;;;;;;;79.47;41.13;;;4.40;99.90;;;;;;5066674;28;20113;-91
2020/12/07 05:23:41;;;;;;;75.10;40.08;;;4.40;99.90;;;;;;5047499;28;20027;-90
2020/12/07 05:26:09;;;;;;;80.78;40.47;;;4.40;99.90;;;;;;5064904;28;20127;-90
2020/12/07 05:28:40;;;;;;;79.97;39.67;;;4.40;99.90;;;;;;5054950;28;20108;-90
2020/12/07 05:31:06;;;;;;;67.47;38.45;;;4.40;99.90;;;;;;5051550;28;20044;-90
2020/12/07 05:33:31;;;;;;;67.55;37.97;;;4.40;99.90;;;;;;5050148;28;20060;-90
2020/12/07 05:35:58;;;;;;;63.38;37.03;;;4.40;99.90;;;;;;5046958;28;20020;-90
2020/12/07 05:38:34;;;;;;;63.80;35.80;;;4.40;99.90;;;;;;5048334;28;20531;-90
2020/12/07 05:41:02;;;;;;;69.93;36.70;;;4.40;99.90;;;;;;5051987;28;20112;-90
2020/12/07 05:43:29;;;;;;;71.90;37.38;;;4.40;99.90;;;;;;5046650;28;20078;-90
2020/12/07 05:45:58;;;;;;;69.22;37.38;;;4.40;99.90;;;;;;5046999;28;20033;-90
2020/12/07 05:48:30;;;;;;;63.92;35.40;;;4.40;99.90;;;;;;5043861;28;20041;-90
2020/12/07 05:50:59;;;;;;;77.82;40.25;;;4.50;99.90;;;;;;5058489;28;20092;-90
2020/12/07 05:53:25;;;;;;;67.57;36.33;;;4.40;99.90;;;;;;5044907;28;20051;-90
2020/12/07 05:55:51;;;;;;;68.82;36.20;;;4.50;99.90;;;;;;5053097;28;20437;-91
2020/12/07 05:58:21;;;;;;;69.85;35.92;;;4.50;99.90;;;;;;5044515;28;20063;-90
2020/12/07 06:00:47;;;;;;;71.25;37.63;;;4.50;99.90;;;;;;5047388;28;20016;-90
2020/12/07 06:03:17;;;;;;;69.22;37.38;;;4.50;99.90;;;;;;5052642;28;20496;-90
2020/12/07 06:05:44;;;;;;;61.47;34.20;;;4.50;99.90;;;;;;5049598;28;20029;-90
2020/12/07 06:08:15;;;;;;;69.05;34.65;;;4.50;99.90;;;;;;5053633;28;20058;-90
2020/12/07 06:11:04;;;;;;;66.43;36.60;;;4.50;99.90;;;;;;5064062;28;20009;-91
2020/12/07 06:13:30;;;;;;;61.65;35.83;;;4.60;99.90;;;;;;5059313;28;20013;-90
2020/12/07 06:15:57;;;;;;;64.82;36.72;;;4.50;99.90;;;;;;5047365;28;20049;-90
2020/12/07 06:18:30;;;;;;;74.00;38.70;;;4.50;99.90;;;;;;5064953;28;20020;-90
2020/12/07 06:21:05;;;;;;;65.15;37.33;;;4.60;99.90;;;;;;5046929;28;20029;-91
2020/12/07 06:23:36;;;;;;;62.30;36.05;;;4.60;99.90;;;;;;5046431;28;20480;-90
2020/12/07 06:26:05;;;;;;;68.00;39.13;;;4.50;99.90;;;;;;5050933;28;20488;-90
2020/12/07 06:28:38;;;;;;;64.28;37.15;;;4.60;99.90;;;;;;5065168;28;20028;-89
2020/12/07 06:31:14;;;;;;;64.03;35.40;;;4.60;99.90;;;;;;5055914;28;20068;-89
2020/12/07 06:33:45;;;;;;;66.50;35.20;;;4.60;99.90;;;;;;5056929;28;20024;-89
2020/12/07 06:36:30;;;;;;;63.47;37.88;;;4.60;99.90;;;;;;5073758;28;20039;-88
2020/12/07 06:39:09;;;;;;;65.60;37.42;;;4.60;99.90;;;;;;5056189;28;20021;-90
2020/12/07 06:41:41;;;;;;;63.10;35.05;;;4.60;99.90;;;;;;5055758;28;20032;-91
2020/12/07 06:44:08;;;;;;;60.75;36.00;;;4.60;99.90;;;;;;5055805;28;20044;-90
2020/12/07 06:46:50;;;;;;;64.05;36.30;;;4.60;99.90;;;;;;5055687;28;20051;-91
2020/12/07 06:49:17;;;;;;;66.45;36.95;;;4.60;99.90;;;;;;5055986;28;20021;-89
2020/12/07 06:51:46;;;;;;;62.30;35.83;;;4.60;99.90;;;;;;5076808;28;20507;-90
2020/12/07 06:57:21;;;;;;;61.15;33.67;;;4.60;99.90;;;;;;5077535;28;20039;-89
2020/12/07 07:00:02;;;;;;;53.80;32.53;;;4.60;99.90;;;;;;5059535;28;20020;-90
2020/12/07 07:02:29;;;;;;;53.75;30.55;;;4.60;99.90;;;;;;5077364;28;20025;-91
2020/12/07 07:04:57;;;;;;;57.50;33.53;;;4.60;99.90;;;;;;5059437;28;20033;-89
2020/12/07 07:07:25;;;;;;;64.60;34.38;;;4.60;99.90;;;;;;5059700;28;20025;-90
2020/12/07 07:09:52;;;;;;;57.75;32.67;;;4.60;99.90;;;;;;5059059;28;20020;-90
2020/12/07 07:12:18;;;;;;;60.35;33.35;;;4.60;99.90;;;;;;5058931;28;20052;-90
2020/12/07 07:14:46;;;;;;;62.47;33.33;;;4.60;99.90;;;;;;5058936;28;20081;-90
2020/12/07 07:17:11;;;;;;;57.92;32.45;;;4.60;99.90;;;;;;5059216;28;20035;-90
2020/12/07 07:19:37;;;;;;;59.35;32.53;;;4.60;99.90;;;;;;5058903;28;20029;-87
2020/12/07 07:22:02;;;;;;;57.70;32.83;;;4.60;99.90;;;;;;5059139;28;20090;-90
2020/12/07 07:24:38;;;;;;;64.78;33.55;;;4.60;99.90;;;;;;5058741;28;20119;-91
2020/12/07 07:27:58;;;;;;;70.28;36.40;;;4.60;99.90;;;;;;5076580;28;20024;-92
2020/12/07 07:29:52;;;;;;;69.18;35.65;;;4.60;99.90;;;;;;5076344;28;20051;-90
2020/12/07 07:32:17;;;;;;;65.07;34.95;;;4.60;99.90;;;;;;5058615;28;20484;-88
2020/12/07 07:34:46;;;;;;;74.20;36.78;;;4.60;99.90;;;;;;5059595;28;20052;-94
2020/12/07 07:37:13;;;;;;;64.78;33.80;;;4.60;99.90;;;;;;5058808;28;20060;-93
2020/12/07 07:39:38;;;;;;;67.50;36.28;;;4.60;99.90;;;;;;5076575;28;20020;-87
2020/12/07 07:42:10;;;;;;;73.18;37.45;;;4.60;99.90;;;;;;5057204;28;20098;-87
2020/12/07 07:44:39;;;;;;;69.57;35.83;;;4.60;99.90;;;;;;5073265;28;20025;-88
2020/12/07 07:47:08;;;;;;;67.95;35.67;;;4.60;99.90;;;;;;5075876;28;20032;-88
2020/12/07 07:50:02;;;;;;;64.35;35.13;;;4.60;99.90;;;;;;5075699;28;20537;-89
2020/12/07 07:59:10;;;;;;;71.75;35.25;;;4.60;99.90;;;;;;5076577;28;20043;-89
2020/12/07 08:07:51;;;;;;;56.67;30.80;;;4.60;99.90;;;;;;5070849;28;20062;-88
2020/12/07 08:18:08;;;;;;;56.05;30.33;;;4.60;99.90;;;;;;5046539;28;20037;-90
2020/12/07 08:20:37;;;;;;;55.25;30.35;;;4.60;99.90;;;;;;5047948;28;20020;-90
2020/12/07 08:23:07;;;;;;;54.45;31.35;;;4.60;99.90;;;;;;5057451;28;20028;-88
2020/12/07 08:25:50;;;;;;;52.83;29.67;;;4.70;99.90;;;;;;5057491;28;20031;-88
2020/12/07 08:28:22;;;;;;;57.35;31.52;;;4.70;99.90;;;;;;5057348;28;20064;-89
2020/12/07 08:30:59;;;;;;;53.65;30.38;;;4.70;99.90;;;;;;5056911;28;20190;-89
2020/12/07 08:33:25;;;;;;;53.85;29.77;;;4.70;99.90;;;;;;5057162;28;20059;-89
2020/12/07 08:35:51;;;;;;;61.55;35.53;;;4.70;99.90;;;;;;5057447;28;20020;-88
2020/12/07 08:38:36;;;;;;;62.40;34.72;;;4.70;99.90;;;;;;5057299;28;20031;-88
2020/12/07 08:41:04;;;;;;;67.43;37.78;;;4.70;99.90;;;;;;5072388;28;20107;-88
2020/12/07 08:43:30;;;;;;;68.38;37.28;;;4.60;99.90;;;;;;5044648;28;20035;-89
2020/12/07 08:45:56;;;;;;;64.38;36.97;;;4.60;99.90;;;;;;5055239;28;20044;-89
2020/12/07 08:48:21;;;;;;;71.93;40.88;;;4.60;99.90;;;;;;5074874;28;20032;-90
2020/12/07 08:50:47;;;;;;;72.47;40.60;;;4.60;99.90;;;;;;5057117;28;20032;-89
2020/12/07 08:53:12;;;;;;;74.47;39.78;;;4.60;99.90;;;;;;5057155;28;20123;-88
2020/12/07 08:55:38;;;;;;;78.25;43.85;;;4.50;99.90;;;;;;5074583;28;20025;-88
2020/12/07 08:58:03;;;;;;;80.95;40.40;;;4.50;99.90;;;;;;5056670;28;20533;-89
2020/12/07 09:00:29;;;;;;;84.07;43.20;;;4.50;99.90;;;;;;5056517;28;20483;-88
2020/12/07 09:02:54;;;;;;;78.00;43.22;;;4.50;99.90;;;;;;5046579;28;20107;-88
2020/12/07 09:05:20;;;;;;;80.90;43.47;;;4.50;99.90;;;;;;5053391;28;20025;-89
2020/12/07 09:07:45;;;;;;;79.25;43.72;;;4.50;99.90;;;;;;5055958;28;20024;-88
2020/12/07 09:10:11;;;;;;;81.05;43.15;;;4.50;99.90;;;;;;5056185;28;20019;-88
2020/12/07 09:12:36;;;;;;;73.40;42.38;;;4.40;99.90;;;;;;5049788;28;20024;-89
2020/12/07 09:15:03;;;;;;;88.82;45.63;;;4.40;99.90;;;;;;5056386;28;20047;-87
2020/12/07 09:17:29;;;;;;;85.28;47.63;;;4.40;99.90;;;;;;5074145;28;20430;-88
2020/12/07 09:19:55;;;;;;;94.78;50.05;;;4.40;99.90;;;;;;5056372;28;20476;-88
2020/12/07 09:22:20;;;;;;;98.10;49.13;;;4.40;99.90;;;;;;5041675;28;20029;-89
2020/12/07 09:24:46;;;;;;;99.00;51.35;;;4.40;99.90;;;;;;5056120;28;20060;-89
2020/12/07 09:27:11;;;;;;;95.13;51.00;;;4.40;99.90;;;;;;5045485;28;20471;-88
2020/12/07 09:29:37;;;;;;;94.18;50.38;;;4.40;99.90;;;;;;5050360;28;20076;-89
2020/12/07 09:32:02;;;;;;;94.00;51.83;;;4.40;99.90;;;;;;5055705;28;20036;-89
2020/12/07 09:34:28;;;;;;;102.25;54.33;;;4.40;99.90;;;;;;5041428;28;20505;-88
2020/12/07 09:36:53;;;;;;;97.38;52.28;;;4.40;99.90;;;;;;5046965;28;20028;-88
2020/12/07 09:39:19;;;;;;;97.32;54.13;;;4.40;99.90;;;;;;5046789;28;20058;-89
2020/12/07 09:41:44;;;;;;;104.95;54.17;;;4.40;99.90;;;;;;5056114;28;20093;-88
2020/12/07 09:44:10;;;;;;;104.82;56.30;;;4.40;99.90;;;;;;5052580;28;20036;-88
2020/12/07 09:46:35;;;;;;;108.53;57.58;;;4.40;99.90;;;;;;5047559;28;20032;-89
2020/12/07 09:49:01;;;;;;;106.85;52.17;;;4.40;99.90;;;;;;5055897;28;20408;-89
2020/12/07 09:51:26;;;;;;;118.53;56.20;;;4.40;99.90;;;;;;5056068;28;20097;-88
2020/12/07 09:53:52;;;;;;;115.90;57.85;;;4.40;99.90;;;;;;5073829;28;20024;-89
2020/12/07 09:56:17;;;;;;;109.45;56.80;;;4.40;99.90;;;;;;5054026;28;20097;-89
2020/12/07 09:58:43;;;;;;;127.53;61.60;;;4.40;99.90;;;;;;5045500;28;20467;-89
2020/12/07 10:01:08;;;;;;;130.95;65.18;;;4.40;99.90;;;;;;5074081;28;20029;-89
2020/12/07 10:03:34;;;;;;;118.63;59.90;;;4.40;99.90;;;;;;5073834;28;20033;-90
2020/12/07 10:06:00;;;;;;;127.60;65.15;;;4.40;99.90;;;;;;5056905;28;20074;-90
2020/12/07 10:08:25;;;;;;;133.50;61.83;;;4.30;99.90;;;;;;5056536;28;20418;-91
2020/12/07 10:10:51;;;;;;;121.82;60.17;;;4.30;99.90;;;;;;5073876;28;20021;-93
2020/12/07 10:13:17;;;;;;;131.50;62.55;;;4.20;99.90;;;;;;5056269;28;20074;-92
2020/12/07 10:15:42;;;;;;;119.85;57.83;;;4.30;99.90;;;;;;5052420;28;20024;-91
2020/12/07 10:18:08;;;;;;;122.47;59.90;;;4.30;99.90;;;;;;5055645;28;20028;-92
2020/12/07 10:20:33;;;;;;;143.55;66.22;;;4.20;99.90;;;;;;5056224;28;20055;-91
2020/12/07 10:22:59;;;;;;;124.75;61.90;;;4.20;99.90;;;;;;5056161;28;20016;-91
2020/12/07 10:25:24;;;;;;;149.20;64.85;;;4.20;99.90;;;;;;5059299;28;20177;-91
2020/12/07 10:27:50;;;;;;;147.35;67.05;;;4.20;99.90;;;;;;5059877;28;20555;-90
2020/12/07 10:30:15;;;;;;;147.95;67.65;;;4.20;99.90;;;;;;5059962;28;20052;-91
2020/12/07 10:32:41;;;;;;;145.20;65.35;;;4.10;99.90;;;;;;5077697;28;20054;-91
2020/12/07 10:35:06;;;;;;;133.50;61.88;;;4.10;99.90;;;;;;5059955;28;20115;-91
2020/12/07 10:37:32;;;;;;;142.95;65.38;;;4.10;99.90;;;;;;5048279;28;20051;-91
2020/12/07 10:39:57;;;;;;;130.40;60.58;;;4.10;99.90;;;;;;5045594;28;20470;-92
2020/12/07 10:42:23;;;;;;;138.15;61.35;;;4.10;99.90;;;;;;5059873;28;20034;-91
2020/12/07 10:44:48;;;;;;;139.43;63.95;;;4.10;99.90;;;;;;5058506;28;20028;-92
2020/12/07 10:47:14;;;;;;;133.65;59.33;;;4.00;99.90;;;;;;5039848;28;20033;-90
2020/12/07 10:49:39;;;;;;;136.68;59.85;;;4.00;99.90;;;;;;5039884;28;20025;-93
2020/12/07 10:52:05;;;;;;;143.00;62.58;;;4.10;99.90;;;;;;5039628;28;20031;-92
2020/12/07 10:54:30;;;;;;;145.63;61.88;;;4.10;99.90;;;;;;5062410;28;20032;-90
2020/12/07 10:56:56;;;;;;;150.82;63.45;;;4.10;99.90;;;;;;5059460;28;20039;-91
2020/12/07 10:59:22;;;;;;;148.82;64.18;;;4.10;99.90;;;;;;5077154;28;20430;-90
2020/12/07 11:01:51;;;;;;;145.88;62.88;;;4.20;99.90;;;;;;5077272;28;20043;-90
2020/12/07 11:04:17;;;;;;;134.30;58.50;;;4.20;99.90;;;;;;5077535;28;20024;-91
2020/12/07 11:06:44;;;;;;;139.98;64.38;;;4.20;99.90;;;;;;5059262;28;20074;-91
2020/12/07 11:09:11;;;;;;;114.35;52.72;;;4.20;99.90;;;;;;5059293;28;20027;-90
2020/12/07 11:11:37;;;;;;;131.05;60.10;;;4.10;99.90;;;;;;5050740;28;20031;-90
2020/12/07 11:14:03;;;;;;;118.45;55.10;;;4.20;99.90;;;;;;5041203;28;20465;-91
2020/12/07 11:16:29;;;;;;;122.22;55.03;;;4.20;99.90;;;;;;5076910;28;20062;-91
2020/12/07 11:18:54;;;;;;;112.65;53.60;;;4.20;99.90;;;;;;5059080;28;20020;-90
2020/12/07 11:21:20;;;;;;;121.07;54.70;;;4.20;99.90;;;;;;5059212;28;20021;-90
2020/12/07 11:23:47;;;;;;;107.43;49.95;;;4.20;99.90;;;;;;5058927;28;20025;-91
2020/12/07 11:26:15;;;;;;;109.63;51.40;;;4.20;99.90;;;;;;5059129;28;20028;-90
2020/12/07 11:28:41;;;;;;;106.60;50.58;;;4.20;99.90;;;;;;5075506;28;20031;-91
2020/12/07 11:31:11;;;;;;;108.90;50.78;;;4.20;99.90;;;;;;5051995;28;20041;-90
2020/12/07 11:33:37;;;;;;;92.75;46.40;;;4.20;99.90;;;;;;5035188;28;20029;-91
2020/12/07 11:36:03;;;;;;;98.00;47.40;;;4.20;99.90;;;;;;5020999;28;20470;-91
2020/12/07 11:38:34;;;;;;;90.55;44.42;;;4.20;99.90;;;;;;5032200;28;20030;-90
2020/12/07 11:46:34;;;;;;;90.93;43.83;;;4.20;99.90;;;;;;5016996;28;20030;-90
2020/12/07 11:49:00;;;;;;;88.70;42.10;;;4.20;99.90;;;;;;5031961;28;20030;-90
2020/12/07 11:51:27;;;;;;;79.28;39.33;;;4.20;99.90;;;;;;5016588;28;20037;-90
2020/12/07 11:53:54;;;;;;;77.03;38.92;;;4.10;99.90;;;;;;5031920;28;20485;-90
2020/12/07 11:56:28;;;;;;;81.97;38.78;;;4.10;99.90;;;;;;5031980;28;20113;-90
2020/12/07 11:58:53;;;;;;;77.82;40.20;;;4.10;99.90;;;;;;5016424;28;20029;-90
2020/12/07 12:01:19;;;;;;;85.63;42.28;;;4.10;99.90;;;;;;5031791;28;20056;-92
2020/12/07 12:03:44;;;;;;;79.07;40.10;;;4.20;99.90;;;;;;5015222;28;20030;-91
2020/12/07 12:06:10;;;;;;;76.60;38.80;;;4.20;99.90;;;;;;5015203;28;20026;-90
2020/12/07 12:08:35;;;;;;;73.72;36.90;;;4.10;99.90;;;;;;5031792;28;20544;-91
2020/12/07 12:11:01;;;;;;;70.70;37.38;;;4.10;99.90;;;;;;5035118;28;20029;-90
2020/12/07 12:13:26;;;;;;;77.40;37.70;;;4.00;99.90;;;;;;5036038;28;20495;-91
2020/12/07 12:15:52;;;;;;;79.63;39.45;;;4.00;99.90;;;;;;5034654;28;20025;-91
2020/12/07 12:18:17;;;;;;;78.88;38.78;;;4.00;99.90;;;;;;5034718;28;20473;-90
2020/12/07 12:20:46;;;;;;;84.28;37.88;;;4.00;99.90;;;;;;5035602;28;20096;-91
2020/12/07 12:23:12;;;;;;;77.55;36.92;;;4.00;99.90;;;;;;5034768;28;20026;-91
2020/12/07 12:25:40;;;;;;;89.57;41.03;;;4.00;99.90;;;;;;5034879;28;20025;-92
2020/12/07 12:28:07;;;;;;;81.03;39.63;;;4.00;99.90;;;;;;5034422;28;20029;-91
2020/12/07 12:30:33;;;;;;;85.10;40.75;;;4.00;99.90;;;;;;5040556;28;20475;-90
2020/12/07 12:32:58;;;;;;;86.22;38.00;;;4.00;99.90;;;;;;5057782;28;20017;-90
2020/12/07 12:35:25;;;;;;;77.95;39.85;;;4.00;99.90;;;;;;5057608;28;20024;-90
2020/12/07 12:37:51;;;;;;;81.63;40.17;;;4.00;99.90;;;;;;5057817;28;20029;-90
2020/12/07 12:40:17;;;;;;;87.65;40.50;;;4.00;99.90;;;;;;5075329;28;20021;-90
2020/12/07 12:42:42;;;;;;;90.80;42.17;;;4.00;99.90;;;;;;5057728;28;20039;-90
2020/12/07 12:45:08;;;;;;;84.70;41.28;;;4.00;99.90;;;;;;5057509;28;20036;-91
2020/12/07 12:47:33;;;;;;;92.03;41.05;;;4.00;99.90;;;;;;5056418;28;20052;-90
2020/12/07 12:49:59;;;;;;;84.90;41.10;;;4.00;99.90;;;;;;5057206;28;20502;-90
2020/12/07 12:52:24;;;;;;;86.13;40.15;;;4.00;99.90;;;;;;5057389;28;20027;-90
2020/12/07 12:54:50;;;;;;;92.13;43.13;;;4.00;99.90;;;;;;5075269;28;20028;-90
2020/12/07 12:57:15;;;;;;;90.90;42.15;;;4.00;99.90;;;;;;5075062;28;20533;-90
2020/12/07 12:59:40;;;;;;;94.85;41.15;;;4.00;99.90;;;;;;5057102;28;20024;-90
2020/12/07 13:02:06;;;;;;;94.10;43.53;;;4.00;99.90;;;;;;5057052;28;20029;-90
2020/12/07 13:04:32;;;;;;;97.40;41.60;;;4.00;99.90;;;;;;5056991;28;20078;-90